sensor_id;sensor_type;location;lat;lon;timestamp;temperature;humidity
42145;DHT22;27813;43.516;11.890;2023-09-18T04:32:28;16.50;86.10
42145;DHT22;27813;43.516;11.890;2023-09-18T05:09:30;16.20;86.50
42145;DHT22;27813;43.516;11.890;2023-09-18T05:20:21;16.30;86.40
42145;DHT22;27813;43.516;11.890;2023-09-18T05:24:59;16.40;86.30
42145;DHT22;27813;43.516;11.890;2023-09-18T05:29:07;16.50;86.10
42145;DHT22;27813;43.516;11.890;2023-09-18T05:33:14;16.60;85.90
42145;DHT22;27813;43.516;11.890;2023-09-18T05:37:18;16.70;85.70
42145;DHT22;27813;43.516;11.890;2023-09-18T05:41:23;16.80;85.60
42145;DHT22;27813;43.516;11.890;2023-09-18T05:45:40;17.00;85.50
42145;DHT22;27813;43.516;11.890;2023-09-18T05:49:52;17.20;85.20
42145;DHT22;27813;43.516;11.890;2023-09-18T05:55:29;17.50;84.70
42145;DHT22;27813;43.516;11.890;2023-09-18T06:00:24;18.00;83.70
42145;DHT22;27813;43.516;11.890;2023-09-18T06:04:29;18.20;83.00
42145;DHT22;27813;43.516;11.890;2023-09-18T06:08:36;18.60;82.40
42145;DHT22;27813;43.516;11.890;2023-09-18T06:13:52;19.00;81.60
42145;DHT22;27813;43.516;11.890;2023-09-18T06:18:18;19.60;80.30
42145;DHT22;27813;43.516;11.890;2023-09-18T06:27:26;20.70;77.80
42145;DHT22;27813;43.516;11.890;2023-09-18T06:31:31;20.70;77.90
42145;DHT22;27813;43.516;11.890;2023-09-18T06:35:35;20.60;78.40
42145;DHT22;27813;43.516;11.890;2023-09-18T06:39:40;20.60;78.80
42145;DHT22;27813;43.516;11.890;2023-09-18T06:43:45;20.80;78.90
42145;DHT22;27813;43.516;11.890;2023-09-18T06:47:49;20.90;78.90
42145;DHT22;27813;43.516;11.890;2023-09-18T06:51:54;21.00;78.80
42145;DHT22;27813;43.516;11.890;2023-09-18T06:55:58;21.20;78.60
42145;DHT22;27813;43.516;11.890;2023-09-18T07:00:03;21.30;78.40
42145;DHT22;27813;43.516;11.890;2023-09-18T07:58:59;24.90;71.40
42145;DHT22;27813;43.516;11.890;2023-09-18T08:03:04;25.30;70.40
42145;DHT22;27813;43.516;11.890;2023-09-18T08:07:08;25.40;69.90
42145;DHT22;27813;43.516;11.890;2023-09-18T08:11:12;25.50;69.60
42145;DHT22;27813;43.516;11.890;2023-09-18T08:15:16;25.50;69.20
42145;DHT22;27813;43.516;11.890;2023-09-18T08:19:21;25.60;69.20
42145;DHT22;27813;43.516;11.890;2023-09-18T08:23:25;25.90;68.90
42145;DHT22;27813;43.516;11.890;2023-09-18T08:27:29;26.20;68.30
42145;DHT22;27813;43.516;11.890;2023-09-18T08:31:34;26.80;67.10
42145;DHT22;27813;43.516;11.890;2023-09-18T08:35:38;27.20;65.70
42145;DHT22;27813;43.516;11.890;2023-09-18T08:39:43;27.50;64.50
42145;DHT22;27813;43.516;11.890;2023-09-18T08:43:48;27.70;63.70
42145;DHT22;27813;43.516;11.890;2023-09-18T08:47:54;27.80;62.90
42145;DHT22;27813;43.516;11.890;2023-09-18T08:52:24;27.90;62.00
42145;DHT22;27813;43.516;11.890;2023-09-18T08:56:31;27.90;61.80
42145;DHT22;27813;43.516;11.890;2023-09-18T09:00:41;28.10;61.30
42145;DHT22;27813;43.516;11.890;2023-09-18T09:04:45;28.30;60.40
42145;DHT22;27813;43.516;11.890;2023-09-18T09:08:51;28.50;59.60
42145;DHT22;27813;43.516;11.890;2023-09-18T09:12:58;28.60;58.90
42145;DHT22;27813;43.516;11.890;2023-09-18T09:17:03;28.80;58.20
42145;DHT22;27813;43.516;11.890;2023-09-18T09:21:10;28.80;57.60
42145;DHT22;27813;43.516;11.890;2023-09-18T09:29:25;29.00;56.60
42145;DHT22;27813;43.516;11.890;2023-09-18T09:33:30;29.00;56.30
42145;DHT22;27813;43.516;11.890;2023-09-18T09:37:35;29.00;56.10
42145;DHT22;27813;43.516;11.890;2023-09-18T09:41:45;29.00;55.50
42145;DHT22;27813;43.516;11.890;2023-09-18T09:45:57;28.90;55.70
42145;DHT22;27813;43.516;11.890;2023-09-18T09:50:13;29.00;55.60
42145;DHT22;27813;43.516;11.890;2023-09-18T09:54:33;29.00;55.40
42145;DHT22;27813;43.516;11.890;2023-09-18T09:58:43;29.10;55.20
42145;DHT22;27813;43.516;11.890;2023-09-18T10:02:49;29.20;55.10
42145;DHT22;27813;43.516;11.890;2023-09-18T10:07:07;29.30;54.80
42145;DHT22;27813;43.516;11.890;2023-09-18T10:11:16;29.50;54.40
42145;DHT22;27813;43.516;11.890;2023-09-18T10:15:21;29.50;54.50
42145;DHT22;27813;43.516;11.890;2023-09-18T10:19:40;29.70;54.00
42145;DHT22;27813;43.516;11.890;2023-09-18T10:24:12;29.80;53.60
42145;DHT22;27813;43.516;11.890;2023-09-18T10:28:27;30.00;53.00
42145;DHT22;27813;43.516;11.890;2023-09-18T10:32:44;30.10;52.40
42145;DHT22;27813;43.516;11.890;2023-09-18T10:36:55;30.20;52.10
42145;DHT22;27813;43.516;11.890;2023-09-18T10:41:05;30.40;51.50
42145;DHT22;27813;43.516;11.890;2023-09-18T10:45:13;30.50;51.20
42145;DHT22;27813;43.516;11.890;2023-09-18T10:49:22;30.50;50.80
42145;DHT22;27813;43.516;11.890;2023-09-18T10:53:32;30.80;50.40
42145;DHT22;27813;43.516;11.890;2023-09-18T10:57:37;31.10;49.70
42145;DHT22;27813;43.516;11.890;2023-09-18T11:01:43;31.50;49.00
42145;DHT22;27813;43.516;11.890;2023-09-18T11:06:01;31.60;48.20
42145;DHT22;27813;43.516;11.890;2023-09-18T11:10:25;31.70;47.80
42145;DHT22;27813;43.516;11.890;2023-09-18T11:14:56;31.80;47.40
42145;DHT22;27813;43.516;11.890;2023-09-18T11:27:24;32.60;46.20
42145;DHT22;27813;43.516;11.890;2023-09-18T11:31:46;32.70;46.00
42145;DHT22;27813;43.516;11.890;2023-09-18T11:35:51;32.60;45.90
42145;DHT22;27813;43.516;11.890;2023-09-18T11:39:56;32.50;46.10
42145;DHT22;27813;43.516;11.890;2023-09-18T11:48:26;32.80;45.50
42145;DHT22;27813;43.516;11.890;2023-09-18T11:52:34;32.80;45.20
42145;DHT22;27813;43.516;11.890;2023-09-18T11:56:40;32.80;45.10
42145;DHT22;27813;43.516;11.890;2023-09-18T12:00:44;32.90;44.70
42145;DHT22;27813;43.516;11.890;2023-09-18T12:04:51;33.00;44.40
42145;DHT22;27813;43.516;11.890;2023-09-18T12:08:56;33.00;44.10
42145;DHT22;27813;43.516;11.890;2023-09-18T12:13:15;33.00;43.80
42145;DHT22;27813;43.516;11.890;2023-09-18T12:17:19;33.00;43.60
42145;DHT22;27813;43.516;11.890;2023-09-18T12:21:24;33.00;43.60
42145;DHT22;27813;43.516;11.890;2023-09-18T12:25:28;32.90;43.60
42145;DHT22;27813;43.516;11.890;2023-09-18T12:29:33;33.00;43.60
42145;DHT22;27813;43.516;11.890;2023-09-18T12:33:38;33.20;43.50
42145;DHT22;27813;43.516;11.890;2023-09-18T12:37:43;33.40;43.20
42145;DHT22;27813;43.516;11.890;2023-09-18T12:41:47;33.60;42.70
42145;DHT22;27813;43.516;11.890;2023-09-18T12:45:52;33.70;42.60
42145;DHT22;27813;43.516;11.890;2023-09-18T12:50:03;33.70;42.40
42145;DHT22;27813;43.516;11.890;2023-09-18T12:54:08;33.70;42.60
42145;DHT22;27813;43.516;11.890;2023-09-18T12:58:12;33.80;42.40
42145;DHT22;27813;43.516;11.890;2023-09-18T13:02:18;33.80;42.20
42145;DHT22;27813;43.516;11.890;2023-09-18T13:06:22;33.50;42.20
42145;DHT22;27813;43.516;11.890;2023-09-18T13:10:28;33.40;42.40
42145;DHT22;27813;43.516;11.890;2023-09-18T13:14:57;33.20;42.40
42145;DHT22;27813;43.516;11.890;2023-09-18T13:19:04;33.00;42.70
42145;DHT22;27813;43.516;11.890;2023-09-18T13:23:09;33.00;42.80
42145;DHT22;27813;43.516;11.890;2023-09-18T13:27:13;32.90;42.90
42145;DHT22;27813;43.516;11.890;2023-09-18T13:31:17;32.80;43.10
42145;DHT22;27813;43.516;11.890;2023-09-18T13:35:23;32.80;43.20
42145;DHT22;27813;43.516;11.890;2023-09-18T13:39:27;32.70;43.20
42145;DHT22;27813;43.516;11.890;2023-09-18T13:43:32;32.60;43.30
42145;DHT22;27813;43.516;11.890;2023-09-18T13:47:39;32.50;43.40
42145;DHT22;27813;43.516;11.890;2023-09-18T13:51:44;32.30;43.70
42145;DHT22;27813;43.516;11.890;2023-09-18T13:55:48;32.30;44.10
42145;DHT22;27813;43.516;11.890;2023-09-18T13:59:52;32.20;44.30
42145;DHT22;27813;43.516;11.890;2023-09-18T14:03:57;32.00;44.50
42145;DHT22;27813;43.516;11.890;2023-09-18T14:08:01;32.00;44.60
42145;DHT22;27813;43.516;11.890;2023-09-18T14:12:07;31.80;44.80
42145;DHT22;27813;43.516;11.890;2023-09-18T14:16:11;31.70;44.90
42145;DHT22;27813;43.516;11.890;2023-09-18T14:20:21;31.50;45.10
42145;DHT22;27813;43.516;11.890;2023-09-18T14:24:28;31.30;45.40
42145;DHT22;27813;43.516;11.890;2023-09-18T14:28:41;31.40;45.50
42145;DHT22;27813;43.516;11.890;2023-09-18T14:32:48;31.60;45.20
42145;DHT22;27813;43.516;11.890;2023-09-18T14:36:54;31.80;44.90
42145;DHT22;27813;43.516;11.890;2023-09-18T14:40:58;31.90;44.80
42145;DHT22;27813;43.516;11.890;2023-09-18T14:45:06;31.80;44.70
42145;DHT22;27813;43.516;11.890;2023-09-18T14:49:11;31.50;44.90
42145;DHT22;27813;43.516;11.890;2023-09-18T14:53:15;31.40;45.10
42145;DHT22;27813;43.516;11.890;2023-09-18T14:57:19;31.30;45.20
42145;DHT22;27813;43.516;11.890;2023-09-18T15:01:24;31.30;45.30
42145;DHT22;27813;43.516;11.890;2023-09-18T15:05:28;31.30;45.20
42145;DHT22;27813;43.516;11.890;2023-09-18T15:09:33;31.40;45.00
42145;DHT22;27813;43.516;11.890;2023-09-18T15:13:37;31.40;45.00
42145;DHT22;27813;43.516;11.890;2023-09-18T15:17:43;31.30;45.00
42145;DHT22;27813;43.516;11.890;2023-09-18T15:21:47;31.30;45.10
42145;DHT22;27813;43.516;11.890;2023-09-18T15:25:52;31.20;45.30
42145;DHT22;27813;43.516;11.890;2023-09-18T15:29:59;31.00;45.50
42145;DHT22;27813;43.516;11.890;2023-09-18T15:34:04;30.70;45.80
42145;DHT22;27813;43.516;11.890;2023-09-18T15:38:09;30.50;46.10
42145;DHT22;27813;43.516;11.890;2023-09-18T15:42:13;30.10;46.50
42145;DHT22;27813;43.516;11.890;2023-09-18T15:46:19;29.90;46.80
42145;DHT22;27813;43.516;11.890;2023-09-18T15:50:23;29.60;47.10
42145;DHT22;27813;43.516;11.890;2023-09-18T15:54:27;29.50;47.40
42145;DHT22;27813;43.516;11.890;2023-09-18T15:58:32;29.30;47.70
42145;DHT22;27813;43.516;11.890;2023-09-18T16:02:36;29.10;47.90
42145;DHT22;27813;43.516;11.890;2023-09-18T16:06:41;29.00;48.20
42145;DHT22;27813;43.516;11.890;2023-09-18T16:10:45;29.00;48.20
42145;DHT22;27813;43.516;11.890;2023-09-18T16:14:49;29.00;48.10
42145;DHT22;27813;43.516;11.890;2023-09-18T16:18:54;29.00;48.00
42145;DHT22;27813;43.516;11.890;2023-09-18T16:23:01;28.90;48.20
42145;DHT22;27813;43.516;11.890;2023-09-18T16:27:05;28.70;48.40
42145;DHT22;27813;43.516;11.890;2023-09-18T16:31:09;28.50;48.60
42145;DHT22;27813;43.516;11.890;2023-09-18T16:35:14;28.20;49.00
42145;DHT22;27813;43.516;11.890;2023-09-18T16:39:19;28.00;49.40
42145;DHT22;27813;43.516;11.890;2023-09-18T16:43:26;27.80;49.70
42145;DHT22;27813;43.516;11.890;2023-09-18T16:47:38;27.60;50.00
42145;DHT22;27813;43.516;11.890;2023-09-18T16:51:43;27.50;50.20
42145;DHT22;27813;43.516;11.890;2023-09-18T16:55:47;27.40;50.50
42145;DHT22;27813;43.516;11.890;2023-09-18T16:59:51;27.20;50.80
42145;DHT22;27813;43.516;11.890;2023-09-18T17:03:58;27.00;51.10
42145;DHT22;27813;43.516;11.890;2023-09-18T17:08:03;26.90;51.50
42145;DHT22;27813;43.516;11.890;2023-09-18T17:12:29;26.80;51.90
42145;DHT22;27813;43.516;11.890;2023-09-18T17:16:34;26.60;52.30
42145;DHT22;27813;43.516;11.890;2023-09-18T17:20:49;26.50;52.80
42145;DHT22;27813;43.516;11.890;2023-09-18T17:24:53;26.30;53.20
42145;DHT22;27813;43.516;11.890;2023-09-18T17:28:58;26.10;53.80
42145;DHT22;27813;43.516;11.890;2023-09-18T17:33:03;26.00;54.30
42145;DHT22;27813;43.516;11.890;2023-09-18T17:37:11;25.90;54.80
42145;DHT22;27813;43.516;11.890;2023-09-18T17:41:15;25.80;55.20
42145;DHT22;27813;43.516;11.890;2023-09-18T17:45:20;25.70;55.50
42145;DHT22;27813;43.516;11.890;2023-09-18T17:49:25;25.70;55.80
42145;DHT22;27813;43.516;11.890;2023-09-18T17:53:29;25.60;55.90
42145;DHT22;27813;43.516;11.890;2023-09-18T17:57:34;25.60;56.20
42145;DHT22;27813;43.516;11.890;2023-09-18T18:01:39;25.50;56.40
42145;DHT22;27813;43.516;11.890;2023-09-18T18:05:44;25.50;56.60
42145;DHT22;27813;43.516;11.890;2023-09-18T18:09:51;25.50;56.90
42145;DHT22;27813;43.516;11.890;2023-09-18T18:14:10;25.50;57.00
42145;DHT22;27813;43.516;11.890;2023-09-18T18:18:15;25.50;57.30
42145;DHT22;27813;43.516;11.890;2023-09-18T18:22:19;25.30;57.60
42145;DHT22;27813;43.516;11.890;2023-09-18T18:26:24;25.20;57.90
42145;DHT22;27813;43.516;11.890;2023-09-18T18:30:33;25.10;58.20
42145;DHT22;27813;43.516;11.890;2023-09-18T18:34:38;25.00;58.50
42145;DHT22;27813;43.516;11.890;2023-09-18T18:38:42;25.00;58.60
42145;DHT22;27813;43.516;11.890;2023-09-18T18:42:47;24.90;58.80
42145;DHT22;27813;43.516;11.890;2023-09-18T18:46:55;24.80;59.20
42145;DHT22;27813;43.516;11.890;2023-09-18T18:51:04;24.70;59.50
42145;DHT22;27813;43.516;11.890;2023-09-18T18:55:33;24.70;59.60
42145;DHT22;27813;43.516;11.890;2023-09-18T18:59:38;24.50;60.30
42145;DHT22;27813;43.516;11.890;2023-09-18T19:03:50;24.30;60.60
42145;DHT22;27813;43.516;11.890;2023-09-18T19:07:55;24.00;61.20
42145;DHT22;27813;43.516;11.890;2023-09-18T19:12:02;23.80;61.90
42145;DHT22;27813;43.516;11.890;2023-09-18T19:16:19;23.70;62.50
42145;DHT22;27813;43.516;11.890;2023-09-18T19:21:35;23.60;62.90
42145;DHT22;27813;43.516;11.890;2023-09-18T19:31:24;23.50;63.70
42145;DHT22;27813;43.516;11.890;2023-09-18T19:35:45;23.40;63.80
42145;DHT22;27813;43.516;11.890;2023-09-18T19:40:23;23.30;64.00
42145;DHT22;27813;43.516;11.890;2023-09-18T19:44:31;23.10;64.40
42145;DHT22;27813;43.516;11.890;2023-09-18T19:48:48;23.00;64.80
42145;DHT22;27813;43.516;11.890;2023-09-18T19:52:55;22.80;65.40
42145;DHT22;27813;43.516;11.890;2023-09-18T19:57:01;22.60;66.00
42145;DHT22;27813;43.516;11.890;2023-09-18T20:01:05;22.50;66.30
42145;DHT22;27813;43.516;11.890;2023-09-18T20:05:10;22.30;66.70
42145;DHT22;27813;43.516;11.890;2023-09-18T20:09:17;22.20;67.00
42145;DHT22;27813;43.516;11.890;2023-09-18T20:13:21;22.00;67.50
42145;DHT22;27813;43.516;11.890;2023-09-18T20:17:26;21.80;68.10
42145;DHT22;27813;43.516;11.890;2023-09-18T20:21:32;21.60;68.60
42145;DHT22;27813;43.516;11.890;2023-09-18T20:25:40;21.50;69.00
42145;DHT22;27813;43.516;11.890;2023-09-18T20:29:48;21.50;69.30
42145;DHT22;27813;43.516;11.890;2023-09-18T20:33:54;21.60;69.30
42145;DHT22;27813;43.516;11.890;2023-09-18T20:38:00;21.70;69.40
42145;DHT22;27813;43.516;11.890;2023-09-18T20:42:05;21.80;69.50
42145;DHT22;27813;43.516;11.890;2023-09-18T20:46:10;21.60;69.60
42145;DHT22;27813;43.516;11.890;2023-09-18T20:50:15;21.60;69.90
42145;DHT22;27813;43.516;11.890;2023-09-18T20:54:21;21.50;70.20
42145;DHT22;27813;43.516;11.890;2023-09-18T20:58:42;21.50;70.50
42145;DHT22;27813;43.516;11.890;2023-09-18T21:02:47;21.50;70.60
42145;DHT22;27813;43.516;11.890;2023-09-18T21:07:09;21.60;70.40
42145;DHT22;27813;43.516;11.890;2023-09-18T21:11:34;21.70;70.50
42145;DHT22;27813;43.516;11.890;2023-09-18T21:15:52;21.80;70.40
42145;DHT22;27813;43.516;11.890;2023-09-18T21:19:57;21.80;70.60
42145;DHT22;27813;43.516;11.890;2023-09-18T21:24:01;21.80;70.80
42145;DHT22;27813;43.516;11.890;2023-09-18T21:28:09;21.70;71.00
42145;DHT22;27813;43.516;11.890;2023-09-18T21:32:20;21.70;71.20
42145;DHT22;27813;43.516;11.890;2023-09-18T21:36:31;21.60;71.40
42145;DHT22;27813;43.516;11.890;2023-09-18T21:40:39;21.50;71.60
42145;DHT22;27813;43.516;11.890;2023-09-18T21:44:48;21.50;72.00
42145;DHT22;27813;43.516;11.890;2023-09-18T21:48:55;21.50;72.10
42145;DHT22;27813;43.516;11.890;2023-09-18T21:53:00;21.50;72.10
42145;DHT22;27813;43.516;11.890;2023-09-18T21:57:05;21.50;72.10
42145;DHT22;27813;43.516;11.890;2023-09-18T22:01:18;21.40;72.20
42145;DHT22;27813;43.516;11.890;2023-09-18T22:05:42;21.30;72.60
42145;DHT22;27813;43.516;11.890;2023-09-18T22:09:48;21.30;73.00
42145;DHT22;27813;43.516;11.890;2023-09-18T22:13:59;21.30;73.20
42145;DHT22;27813;43.516;11.890;2023-09-18T22:18:10;21.30;73.20
42145;DHT22;27813;43.516;11.890;2023-09-18T22:22:24;21.30;73.30
42145;DHT22;27813;43.516;11.890;2023-09-18T22:26:33;21.20;73.50
42145;DHT22;27813;43.516;11.890;2023-09-18T22:30:42;21.20;73.70
42145;DHT22;27813;43.516;11.890;2023-09-18T22:34:58;21.10;74.00
42145;DHT22;27813;43.516;11.890;2023-09-18T22:57:29;21.10;74.40
42145;DHT22;27813;43.516;11.890;2023-09-18T23:01:39;21.10;74.50
42145;DHT22;27813;43.516;11.890;2023-09-18T23:06:00;21.00;74.70
42145;DHT22;27813;43.516;11.890;2023-09-18T23:10:14;20.80;75.00
42145;DHT22;27813;43.516;11.890;2023-09-18T23:14:23;20.60;75.50
42145;DHT22;27813;43.516;11.890;2023-09-18T23:18:28;20.50;75.80
42145;DHT22;27813;43.516;11.890;2023-09-18T23:22:39;20.40;76.10
42145;DHT22;27813;43.516;11.890;2023-09-18T23:26:45;20.20;76.40
